Aviation Digital Data Service (ADDS)

Output produced by METARs form (0858 UTC 23 January 2019)
found at http://aviationweather.gov/metar/data/
 
EDDP 230850Z 08007KT 5000 BR NSC M07/M09 Q1001 NOSIG
TAF EDDP 230500Z 2306/2406 07009KT CAVOK 
     PROB30 
     TEMPO 2320/2406 BKN009 
     PROB30 
     TEMPO 2402/2406 3000 BR BKN004